アティラウ の空港の天気 - METARとTAF

Atyrau Airport ( UATG / GUW ) - カザフスタン Atyrau
飛行場実況気象(Metar)
観測時間04/25 21:00 +05 (04/25 16:00 UTC)
風向・風速西南西 4m/s
視程10km以上
天気現象
なし
気温11℃
湿度50%
気圧1022hPa
METARUATG 251600Z 25004MPS CAVOK 11/01 Q1022 R32/CLRD70 NOSIG RMK QFE769/1025
過去の天気等 Google飛行場航空写真 Wunderground天気予報

過去48時間のMETAR

飛行場予報(TAF)
発表時間: 4/25 16:07 +05 (4/25 11:07 UTC)
予報対象時間: 25日17時 +05 ~ 26日17時 +05
風向・風速南西 10m/s
視程10km以上
全天の8割程度の積乱雲 雲底高度 1,010m
25日17時 +05 ~ 25日19時 +05 に一時的に
天気現象弱いしゅう雨
25日20時 +05 ~ 25日22時 +05 に徐々に
風向・風速西北西 7m/s 瞬間風速 12m/s
TAF UATG 251107Z 2512/2612 23010MPS 9999 BKN033CB TX17/2612Z TN05/2602Z
TEMPO 2512/2514 -SHRA
BECMG 2515/2517 29007G12MPS